createdAt,value
2017-07-22T00:00:55.547Z,20.6
2017-07-22T00:02:11.069Z,20.59
2017-07-22T00:03:25.021Z,20.56
2017-07-22T00:04:38.785Z,20.53
2017-07-22T00:05:52.682Z,20.48
2017-07-22T00:07:06.193Z,20.56
2017-07-22T00:08:20.828Z,20.49
2017-07-22T00:09:34.779Z,20.49
2017-07-22T00:10:48.473Z,20.37
2017-07-22T00:12:02.332Z,20.44
2017-07-22T00:13:15.907Z,20.4
2017-07-22T00:14:29.428Z,20.5
2017-07-22T00:15:42.927Z,20.55
2017-07-22T00:16:56.612Z,20.53
2017-07-22T00:18:10.496Z,20.55
2017-07-22T00:19:24.205Z,20.52
2017-07-22T00:20:37.865Z,20.52
2017-07-22T00:21:51.404Z,20.48
2017-07-22T00:23:05.009Z,20.5
2017-07-22T00:24:19.197Z,20.42
2017-07-22T00:25:32.764Z,20.42
2017-07-22T00:26:46.487Z,20.39
2017-07-22T00:28:00.380Z,20.46
2017-07-22T00:29:14.112Z,20.37
2017-07-22T00:30:28.118Z,20.46
2017-07-22T00:31:41.702Z,20.39
2017-07-22T00:32:55.240Z,20.34
2017-07-22T00:34:09.444Z,20.27
2017-07-22T00:35:23.016Z,20.39
2017-07-22T00:36:37.145Z,20.37
2017-07-22T00:37:50.705Z,20.37
2017-07-22T00:39:04.609Z,20.44
2017-07-22T00:40:18.233Z,20.42
2017-07-22T00:41:57.827Z,20.4
2017-07-22T00:43:12.067Z,20.4
2017-07-22T00:44:25.904Z,20.46
2017-07-22T00:45:40.097Z,20.42
2017-07-22T00:46:53.624Z,20.52
2017-07-22T00:48:07.164Z,20.48
2017-07-22T00:49:21.412Z,20.44
2017-07-22T00:50:35.032Z,20.53
2017-07-22T00:51:49.057Z,20.46
2017-07-22T00:53:02.555Z,20.39
2017-07-22T00:54:16.348Z,20.42
2017-07-22T00:55:30.957Z,20.36
2017-07-22T00:56:44.512Z,20.37
2017-07-22T00:57:58.021Z,20.46
2017-07-22T00:59:11.624Z,20.4
2017-07-22T01:00:25.262Z,20.44
2017-07-22T01:01:39.158Z,20.46
2017-07-22T01:02:52.670Z,20.46
2017-07-22T01:04:06.358Z,20.44
2017-07-22T01:05:19.888Z,20.44
2017-07-22T01:06:33.968Z,20.37
2017-07-22T01:07:47.907Z,20.39
2017-07-22T01:09:01.495Z,20.34
2017-07-22T01:10:15.045Z,20.37
2017-07-22T01:11:29.545Z,20.26
2017-07-22T01:12:43.196Z,20.27
2017-07-22T01:13:57.325Z,20.3
2017-07-22T01:15:10.864Z,20.36
2017-07-22T01:16:24.476Z,20.4
2017-07-22T01:17:38.001Z,20.34
2017-07-22T01:18:52.014Z,20.46
2017-07-22T01:20:05.902Z,20.4
2017-07-22T01:21:19.423Z,20.4
2017-07-22T01:22:32.951Z,20.42
2017-07-22T01:24:13.793Z,20.32
2017-07-22T01:25:27.661Z,20.22
2017-07-22T01:26:41.489Z,20.26
2017-07-22T01:27:55.015Z,20.27
2017-07-22T01:29:08.542Z,20.29
2017-07-22T01:30:22.434Z,20.26
2017-07-22T01:31:36.009Z,20.18
2017-07-22T01:32:49.864Z,20.19
2017-07-22T01:34:03.378Z,20.15
2017-07-22T01:35:17.210Z,20.17
2017-07-22T01:36:31.896Z,20.18
2017-07-22T01:37:45.567Z,20.11
2017-07-22T01:38:59.722Z,20.15
2017-07-22T01:40:13.558Z,20.17
2017-07-22T01:41:27.122Z,20.11
2017-07-22T01:42:40.633Z,20.18
2017-07-22T01:43:54.365Z,20.11
2017-07-22T01:45:08.616Z,20.22
2017-07-22T01:46:22.375Z,20.18
2017-07-22T01:47:35.894Z,20.19
2017-07-22T01:48:49.816Z,20.33
2017-07-22T01:50:03.640Z,20.3
2017-07-22T01:51:17.433Z,20.27
2017-07-22T01:52:31.585Z,20.3
2017-07-22T01:53:45.155Z,20.29
2017-07-22T01:54:58.654Z,20.26
2017-07-22T01:56:12.274Z,20.26
2017-07-22T01:57:26.109Z,20.29
2017-07-22T01:58:39.636Z,20.33
2017-07-22T01:59:53.249Z,20.34
2017-07-22T02:01:07.140Z,20.36
2017-07-22T02:02:20.673Z,20.36
2017-07-22T02:03:34.770Z,20.39
2017-07-22T02:04:48.333Z,20.36
2017-07-22T02:06:02.740Z,20.42
2017-07-22T02:07:16.268Z,20.48
2017-07-22T02:08:30.349Z,20.42
2017-07-22T02:09:44.202Z,20.29
2017-07-22T02:10:58.038Z,20.32
2017-07-22T02:12:11.572Z,20.26
2017-07-22T02:13:25.075Z,20.3
2017-07-22T02:14:38.976Z,20.29
2017-07-22T02:15:53.233Z,20.33
2017-07-22T02:17:06.782Z,20.34
2017-07-22T02:18:20.293Z,20.42
2017-07-22T02:19:34.117Z,20.34
2017-07-22T02:20:47.717Z,20.44
2017-07-22T02:22:01.536Z,20.6
2017-07-22T02:23:15.186Z,20.55
2017-07-22T02:24:29.106Z,20.6
2017-07-22T02:25:43.089Z,20.49
2017-07-22T02:26:56.624Z,20.4
2017-07-22T02:28:10.430Z,20.4
2017-07-22T02:29:24.283Z,20.26
2017-07-22T02:30:38.617Z,20.17
2017-07-22T02:31:52.339Z,20.03
2017-07-22T02:33:05.899Z,19.94
2017-07-22T02:34:19.743Z,19.84
2017-07-22T02:35:33.239Z,19.82
2017-07-22T02:36:47.216Z,19.81
2017-07-22T02:38:00.756Z,19.84
2017-07-22T02:39:14.277Z,19.93
2017-07-22T02:40:28.117Z,19.85
2017-07-22T02:41:42.474Z,19.85
2017-07-22T02:42:56.040Z,19.82
2017-07-22T02:44:09.680Z,19.74
2017-07-22T02:45:23.507Z,19.74
2017-07-22T02:46:37.333Z,19.75
2017-07-22T02:47:51.232Z,19.71
2017-07-22T02:49:05.285Z,19.67
2017-07-22T02:50:18.842Z,19.75
2017-07-22T02:51:32.362Z,19.75
2017-07-22T02:52:46.275Z,19.71
2017-07-22T02:53:59.818Z,19.77
2017-07-22T02:55:13.343Z,19.75
2017-07-22T02:56:26.848Z,19.74
2017-07-22T02:57:40.412Z,19.78
2017-07-22T02:58:54.250Z,19.75
2017-07-22T03:00:08.412Z,19.67
2017-07-22T03:01:22.559Z,19.72
2017-07-22T03:02:36.411Z,19.67
2017-07-22T03:03:50.058Z,19.7
2017-07-22T03:05:03.863Z,19.74
2017-07-22T03:06:17.407Z,19.59
2017-07-22T03:07:30.960Z,19.56
2017-07-22T03:08:44.547Z,19.62
2017-07-22T03:09:58.103Z,19.72
2017-07-22T03:11:11.889Z,19.57
2017-07-22T03:12:25.415Z,19.77
2017-07-22T03:13:39.061Z,19.75
2017-07-22T03:14:52.944Z,19.74
2017-07-22T03:16:06.473Z,19.67
2017-07-22T03:17:20.262Z,19.72
2017-07-22T03:18:33.772Z,19.63
2017-07-22T03:19:47.352Z,19.67
2017-07-22T03:21:01.393Z,19.6
2017-07-22T03:22:15.124Z,19.7
2017-07-22T03:23:28.940Z,19.62
2017-07-22T03:24:42.544Z,19.6
2017-07-22T03:25:56.792Z,19.57
2017-07-22T03:27:10.668Z,19.62
2017-07-22T03:28:24.509Z,19.67
2017-07-22T03:29:38.369Z,19.67
2017-07-22T03:30:52.374Z,19.74
2017-07-22T03:32:05.915Z,19.75
2017-07-22T03:33:19.738Z,19.75
2017-07-22T03:34:33.251Z,19.72
2017-07-22T03:35:47.632Z,19.77
2017-07-22T03:37:01.166Z,19.71
2017-07-22T03:38:14.814Z,19.75
2017-07-22T03:39:28.907Z,19.7
2017-07-22T03:40:42.502Z,19.7
2017-07-22T03:41:56.846Z,19.78
2017-07-22T03:43:42.446Z,19.72
2017-07-22T03:44:55.956Z,19.74
2017-07-22T03:46:09.661Z,19.74
2017-07-22T03:47:23.623Z,19.71
2017-07-22T03:48:37.498Z,19.72
2017-07-22T03:49:51.061Z,19.67
2017-07-22T03:51:04.587Z,19.63
2017-07-22T03:52:18.100Z,19.71
2017-07-22T03:53:32.018Z,19.64
2017-07-22T03:54:45.562Z,19.63
2017-07-22T03:55:59.075Z,19.62
2017-07-22T03:57:12.607Z,19.74
2017-07-22T03:58:26.425Z,19.67
2017-07-22T03:59:40.900Z,19.75
2017-07-22T04:00:54.409Z,19.7
2017-07-22T04:02:07.920Z,19.7
2017-07-22T04:03:21.583Z,19.71
2017-07-22T04:04:35.358Z,19.7
2017-07-22T04:05:49.516Z,19.77
2017-07-22T04:07:03.351Z,19.67
2017-07-22T04:08:17.502Z,19.64
2017-07-22T04:09:31.004Z,19.75
2017-07-22T04:10:44.767Z,19.75
2017-07-22T04:11:58.715Z,19.74
2017-07-22T04:13:12.257Z,19.81
2017-07-22T04:14:25.856Z,19.82
2017-07-22T04:15:39.754Z,19.84
2017-07-22T04:16:53.263Z,19.81
2017-07-22T04:18:07.080Z,19.94
2017-07-22T04:19:20.646Z,19.85
2017-07-22T04:20:34.256Z,19.94
2017-07-22T04:21:47.791Z,19.97
2017-07-22T04:23:01.301Z,19.94
2017-07-22T04:24:15.104Z,19.94
2017-07-22T04:25:28.806Z,19.94
2017-07-22T04:26:42.443Z,19.85
2017-07-22T04:27:55.968Z,19.93
2017-07-22T04:29:09.475Z,19.87
2017-07-22T04:30:23.277Z,19.96
2017-07-22T04:31:36.823Z,19.92
2017-07-22T04:32:50.353Z,20.04
2017-07-22T04:34:04.274Z,20.07
2017-07-22T04:35:17.795Z,20.07
2017-07-22T04:36:31.645Z,20
2017-07-22T04:37:45.159Z,20.07
2017-07-22T04:38:58.710Z,20.04
2017-07-22T04:40:12.289Z,20.07
2017-07-22T04:41:26.126Z,20.08
2017-07-22T04:42:39.958Z,20.17
2017-07-22T04:43:54.098Z,20.21
2017-07-22T04:45:07.690Z,20.14
2017-07-22T04:46:21.771Z,20.18
2017-07-22T04:47:35.965Z,20.11
2017-07-22T04:48:50.084Z,20.1
2017-07-22T04:50:04.023Z,20.11
2017-07-22T04:51:17.522Z,20.19
2017-07-22T04:52:31.059Z,20.29
2017-07-22T04:53:44.553Z,20.12
2017-07-22T04:54:58.420Z,20.11
2017-07-22T04:56:12.577Z,20.19
2017-07-22T04:57:26.428Z,20.19
2017-07-22T04:58:40.261Z,20.3
2017-07-22T04:59:53.786Z,20.34
2017-07-22T05:01:07.906Z,20.46
2017-07-22T05:02:21.480Z,20.5
2017-07-22T05:03:35.185Z,20.58
2017-07-22T05:04:48.751Z,20.74
2017-07-22T05:06:02.347Z,20.89
2017-07-22T05:07:16.521Z,21
2017-07-22T05:08:30.357Z,21.48
2017-07-22T05:09:43.862Z,21.68
2017-07-22T05:10:57.404Z,22
2017-07-22T05:12:10.962Z,22.12
2017-07-22T05:13:24.810Z,22.21
2017-07-22T05:14:38.337Z,22.7
2017-07-22T05:15:52.072Z,23.32
2017-07-22T05:17:05.701Z,24.47
2017-07-22T05:18:19.332Z,25.78
2017-07-22T05:19:33.145Z,26.15
2017-07-22T05:20:46.664Z,25.85
2017-07-22T05:22:00.310Z,25.83
2017-07-22T05:23:13.926Z,25.4
2017-07-22T05:24:27.450Z,24.96
2017-07-22T05:25:41.264Z,24.48
2017-07-22T05:26:54.794Z,24.25
2017-07-22T05:28:08.327Z,24.04
2017-07-22T05:29:21.912Z,24
2017-07-22T05:30:35.771Z,24.01
2017-07-22T05:31:49.913Z,23.79
2017-07-22T05:33:03.519Z,23.94
2017-07-22T05:34:17.143Z,23.86
2017-07-22T05:35:31.321Z,23.77
2017-07-22T05:36:45.198Z,23.44
2017-07-22T05:37:59.343Z,23.44
2017-07-22T05:39:12.980Z,23.11
2017-07-22T05:40:26.585Z,23.25
2017-07-22T05:41:40.215Z,23.25
2017-07-22T05:42:54.034Z,23.04
2017-07-22T05:44:08.165Z,23.11
2017-07-22T05:45:21.834Z,23.34
2017-07-22T05:46:35.368Z,23.92
2017-07-22T05:47:49.246Z,24.18
2017-07-22T05:49:03.419Z,24.51
2017-07-22T05:50:17.327Z,24.22
2017-07-22T05:51:30.875Z,23.96
2017-07-22T05:52:44.394Z,23.74
2017-07-22T05:53:58.232Z,23.62
2017-07-22T05:55:11.806Z,23.28
2017-07-22T05:56:25.611Z,23.02
2017-07-22T05:57:39.428Z,22.86
2017-07-22T05:58:52.933Z,22.67
2017-07-22T06:00:06.533Z,22.55
2017-07-22T06:01:20.351Z,22.58
2017-07-22T06:02:34.221Z,22.4
2017-07-22T06:03:47.768Z,22.46
2017-07-22T06:05:01.291Z,22.53
2017-07-22T06:06:14.991Z,22.56
2017-07-22T06:07:28.866Z,22.55
2017-07-22T06:08:42.649Z,22.63
2017-07-22T06:09:56.617Z,22.8
2017-07-22T06:11:10.775Z,22.61
2017-07-22T06:12:24.358Z,22.68
2017-07-22T06:13:37.917Z,22.63
2017-07-22T06:14:51.773Z,22.44
2017-07-22T06:16:05.755Z,22.51
2017-07-22T06:17:19.277Z,22.26
2017-07-22T06:18:32.800Z,22.12
2017-07-22T06:19:46.393Z,22.01
2017-07-22T06:21:00.212Z,21.81
2017-07-22T06:22:13.747Z,21.78
2017-07-22T06:23:27.305Z,21.77
2017-07-22T06:24:41.153Z,21.63
2017-07-22T06:25:54.722Z,21.72
2017-07-22T06:27:08.544Z,21.8
2017-07-22T06:28:22.074Z,22
2017-07-22T06:29:36.108Z,22.03
2017-07-22T06:30:50.362Z,22.18
2017-07-22T06:32:04.211Z,22.31
2017-07-22T06:33:18.569Z,22.22
2017-07-22T06:34:32.088Z,22.14
2017-07-22T06:35:45.850Z,22.04
2017-07-22T06:36:59.435Z,21.91
2017-07-22T06:38:13.291Z,21.91
2017-07-22T06:39:27.134Z,21.8
2017-07-22T06:40:40.975Z,21.96
2017-07-22T06:41:54.573Z,22.1
2017-07-22T06:43:08.843Z,22.25
2017-07-22T06:44:22.361Z,22.25
2017-07-22T06:45:36.480Z,22.44
2017-07-22T06:46:50.054Z,22.65
2017-07-22T06:48:03.655Z,22.7
2017-07-22T06:49:18.025Z,22.84
2017-07-22T06:50:31.764Z,22.93
2017-07-22T06:51:45.689Z,23.02
2017-07-22T06:52:59.206Z,23.04
2017-07-22T06:54:13.048Z,23.18
2017-07-22T06:55:26.566Z,23.29
2017-07-22T06:56:40.206Z,23.69
2017-07-22T06:57:53.996Z,24.03
2017-07-22T06:59:08.506Z,24.04
2017-07-22T07:00:22.022Z,23.94
2017-07-22T07:01:35.579Z,23.77
2017-07-22T07:02:49.196Z,23.84
2017-07-22T07:04:03.109Z,24.04
2017-07-22T07:05:16.654Z,24.31
2017-07-22T07:06:30.171Z,24.48
2017-07-22T07:07:44.063Z,24.55
2017-07-22T07:08:57.910Z,24.75
2017-07-22T07:10:12.157Z,24.78
2017-07-22T07:11:25.899Z,24.96
2017-07-22T07:12:39.498Z,25.19
2017-07-22T07:13:53.029Z,25.26
2017-07-22T07:15:06.551Z,25.46
2017-07-22T07:16:20.688Z,25.61
2017-07-22T07:17:34.411Z,25.44
2017-07-22T07:18:48.177Z,25.62
2017-07-22T07:20:02.093Z,25.3
2017-07-22T07:21:15.625Z,25.18
2017-07-22T07:22:29.836Z,24.93
2017-07-22T07:23:44.196Z,24.86
2017-07-22T07:24:57.754Z,24.79
2017-07-22T07:26:11.478Z,24.5
2017-07-22T07:27:25.477Z,24.58
2017-07-22T07:28:39.407Z,24.61
2017-07-22T07:29:53.706Z,24.46
2017-07-22T07:31:07.783Z,24.36
2017-07-22T07:32:21.389Z,24.46
2017-07-22T07:33:34.984Z,24.19
2017-07-22T07:34:50.047Z,24.11
2017-07-22T07:36:03.897Z,24.21
2017-07-22T07:37:17.507Z,24.25
2017-07-22T07:38:31.091Z,24.21
2017-07-22T07:39:44.957Z,24.21
2017-07-22T07:40:58.857Z,24.29
2017-07-22T07:42:12.393Z,24.19
2017-07-22T07:43:26.154Z,24.26
2017-07-22T07:44:39.907Z,24.36
2017-07-22T07:45:53.839Z,24.61
2017-07-22T07:47:07.664Z,24.84
2017-07-22T07:48:21.230Z,24.82
2017-07-22T07:49:35.025Z,25.12
2017-07-22T07:50:49.146Z,25.21
2017-07-22T07:52:02.973Z,25.26
2017-07-22T07:53:16.972Z,25.03
2017-07-22T07:54:30.535Z,24.93
2017-07-22T07:55:44.185Z,24.99
2017-07-22T07:56:58.193Z,25.14
2017-07-22T07:58:11.971Z,25.24
2017-07-22T07:59:26.010Z,25.31
2017-07-22T08:00:39.651Z,25.21
2017-07-22T08:01:53.718Z,25.29
2017-07-22T08:03:07.594Z,25.29
2017-07-22T08:04:21.437Z,25.51
2017-07-22T08:05:35.290Z,25.61
2017-07-22T08:06:48.812Z,25.88
2017-07-22T08:08:02.471Z,25.76
2017-07-22T08:09:16.412Z,25.83
2017-07-22T08:10:29.950Z,26.11
2017-07-22T08:11:43.761Z,25.92
2017-07-22T08:12:57.630Z,26.1
2017-07-22T08:14:11.190Z,25.96
2017-07-22T08:15:24.731Z,26.06
2017-07-22T08:16:40.015Z,26.06
2017-07-22T08:18:09.489Z,25.88
2017-07-22T08:19:23.538Z,25.92
2017-07-22T08:20:37.472Z,25.91
2017-07-22T08:21:51.025Z,25.71
2017-07-22T08:23:05.500Z,25.59
2017-07-22T08:24:19.097Z,25.76
2017-07-22T08:25:33.311Z,25.95
2017-07-22T08:26:46.879Z,26.07
2017-07-22T08:28:00.489Z,25.91
2017-07-22T08:29:14.440Z,25.71
2017-07-22T08:30:28.490Z,25.62
2017-07-22T08:31:42.015Z,25.51
2017-07-22T08:32:55.994Z,25.31
2017-07-22T08:34:09.778Z,25.3
2017-07-22T08:35:23.835Z,25.34
2017-07-22T08:36:37.568Z,25.33
2017-07-22T08:37:51.414Z,25.46
2017-07-22T08:39:05.354Z,25.86
2017-07-22T08:40:19.218Z,26.07
2017-07-22T08:41:33.233Z,26.31
2017-07-22T08:42:47.203Z,26.34
2017-07-22T08:44:03.678Z,26.49
2017-07-22T08:45:17.300Z,26.44
2017-07-22T08:46:30.862Z,26.15
2017-07-22T08:47:45.108Z,26.11
2017-07-22T08:48:59.598Z,26.11
2017-07-22T08:50:13.466Z,25.98
2017-07-22T08:51:29.213Z,25.8
2017-07-22T08:52:44.206Z,25.76
2017-07-22T08:53:59.292Z,25.78
2017-07-22T08:55:13.162Z,25.83
2017-07-22T08:56:26.845Z,25.89
2017-07-22T08:57:40.393Z,26.15
2017-07-22T08:58:54.265Z,26.24
2017-07-22T09:00:08.264Z,26.18
2017-07-22T09:01:22.155Z,26.11
2017-07-22T09:02:36.024Z,26.18
2017-07-22T09:03:49.914Z,26.26
2017-07-22T09:05:03.541Z,26.33
2017-07-22T09:06:17.514Z,26.68
2017-07-22T09:07:31.526Z,26.78
2017-07-22T09:08:45.153Z,27
2017-07-22T09:09:59.048Z,27.08
2017-07-22T09:11:12.558Z,26.85
2017-07-22T09:12:26.427Z,26.68
2017-07-22T09:13:40.020Z,26.55
2017-07-22T09:14:53.661Z,26.79
2017-07-22T09:16:07.479Z,27.08
2017-07-22T09:17:21.240Z,27.2
2017-07-22T09:18:35.591Z,27.23
2017-07-22T09:19:49.511Z,27.13
2017-07-22T09:21:04.070Z,27.19
2017-07-22T09:22:17.869Z,27.15
2017-07-22T09:23:31.748Z,27.19
2017-07-22T09:24:45.628Z,27.22
2017-07-22T09:25:59.478Z,27.37
2017-07-22T09:27:13.334Z,27.23
2017-07-22T09:28:26.971Z,27.13
2017-07-22T09:29:40.611Z,26.85
2017-07-22T09:30:54.570Z,26.36
2017-07-22T09:32:08.223Z,26.29
2017-07-22T09:33:21.964Z,26.33
2017-07-22T09:34:35.615Z,26.41
2017-07-22T09:35:50.978Z,26.49
2017-07-22T09:37:05.514Z,26.49
2017-07-22T09:38:19.202Z,26.46
2017-07-22T09:39:33.170Z,26.3
2017-07-22T09:40:46.792Z,26.3
2017-07-22T09:42:00.446Z,26.39
2017-07-22T09:43:14.047Z,26.55
2017-07-22T09:44:27.951Z,26.53
2017-07-22T09:45:41.706Z,26.36
2017-07-22T09:46:55.386Z,26.33
2017-07-22T09:48:08.953Z,26.34
2017-07-22T09:49:22.904Z,26.18
2017-07-22T09:50:36.578Z,26.3
2017-07-22T09:51:50.262Z,26.3
2017-07-22T09:53:04.272Z,26.41
2017-07-22T09:54:17.840Z,26.36
2017-07-22T09:55:31.877Z,26.52
2017-07-22T09:56:45.866Z,26.63
2017-07-22T09:57:59.456Z,26.68
2017-07-22T09:59:13.461Z,26.85
2017-07-22T10:00:27.661Z,26.82
2017-07-22T10:01:41.584Z,26.83
2017-07-22T10:02:56.228Z,26.91
2017-07-22T10:04:12.858Z,26.86
2017-07-22T10:05:26.564Z,27.08
2017-07-22T10:06:43.598Z,27.22
2017-07-22T10:08:01.203Z,27.33
2017-07-22T10:09:18.830Z,27.45
2017-07-22T10:10:35.413Z,27.34
2017-07-22T10:11:50.087Z,27.44
2017-07-22T10:13:04.940Z,27.45
2017-07-22T10:14:19.508Z,27.22
2017-07-22T10:15:34.031Z,27.08
2017-07-22T10:16:48.944Z,27.15
2017-07-22T10:18:03.353Z,27.03
2017-07-22T10:19:17.977Z,27.05
2017-07-22T10:20:31.747Z,26.89
2017-07-22T10:21:46.112Z,26.83
2017-07-22T10:23:01.015Z,26.68
2017-07-22T10:24:15.502Z,26.76
2017-07-22T10:25:29.337Z,26.79
2017-07-22T10:26:43.002Z,26.66
2017-07-22T10:27:57.074Z,26.79
2017-07-22T10:29:10.695Z,26.85
2017-07-22T10:30:24.653Z,27.08
2017-07-22T10:31:39.150Z,27.18
2017-07-22T10:32:52.717Z,27.26
2017-07-22T10:34:06.623Z,27.19
2017-07-22T10:35:20.542Z,27.45
2017-07-22T10:36:34.261Z,27.52
2017-07-22T10:37:48.116Z,27.72
2017-07-22T10:39:01.724Z,27.71
2017-07-22T10:40:15.338Z,27.61
2017-07-22T10:41:31.724Z,27.28
2017-07-22T10:42:47.133Z,27.33
2017-07-22T10:44:02.247Z,27.44
2017-07-22T10:45:16.332Z,27.47
2017-07-22T10:46:30.143Z,27.63
2017-07-22T10:47:44.164Z,27.73
2017-07-22T10:48:57.697Z,27.75
2017-07-22T10:50:11.963Z,27.9
2017-07-22T10:51:25.711Z,27.9
2017-07-22T10:52:39.749Z,27.91
2017-07-22T10:53:53.759Z,27.82
2017-07-22T10:55:07.477Z,27.73
2017-07-22T10:56:21.419Z,27.55
2017-07-22T10:57:35.060Z,27.43
2017-07-22T10:58:49.139Z,27.4
2017-07-22T11:00:03.234Z,27.33
2017-07-22T11:01:18.394Z,27.23
2017-07-22T11:02:33.582Z,27.2
2017-07-22T11:03:47.233Z,27.13
2017-07-22T11:05:01.201Z,27.04
2017-07-22T11:06:14.951Z,26.97
2017-07-22T11:07:28.648Z,26.93
2017-07-22T11:08:42.718Z,26.82
2017-07-22T11:09:57.321Z,26.88
2017-07-22T11:11:11.846Z,26.79
2017-07-22T11:12:25.842Z,26.81
2017-07-22T11:13:39.495Z,26.81
2017-07-22T11:14:53.880Z,26.93
2017-07-22T11:16:07.899Z,27.03
2017-07-22T11:17:21.497Z,26.97
2017-07-22T11:18:35.077Z,26.93
2017-07-22T11:19:49.466Z,26.85
2017-07-22T11:21:04.667Z,26.85
2017-07-22T11:22:19.018Z,26.68
2017-07-22T11:23:33.702Z,26.49
2017-07-22T11:24:48.708Z,26.61
2017-07-22T11:26:02.820Z,26.37
2017-07-22T11:27:16.663Z,26.51
2017-07-22T11:28:30.418Z,26.52
2017-07-22T11:29:46.432Z,26.64
2017-07-22T11:31:01.981Z,26.67
2017-07-22T11:32:19.826Z,26.68
2017-07-22T11:33:34.266Z,26.51
2017-07-22T11:34:49.675Z,26.52
2017-07-22T11:36:07.800Z,26.46
2017-07-22T11:37:23.576Z,26.41
2017-07-22T11:38:38.122Z,26.31
2017-07-22T11:39:53.203Z,26.19
2017-07-22T11:41:07.218Z,26.19
2017-07-22T11:42:21.304Z,26.06
2017-07-22T11:43:35.185Z,26.01
2017-07-22T11:44:49.499Z,25.83
2017-07-22T11:46:03.371Z,25.61
2017-07-22T11:47:18.045Z,25.63
2017-07-22T11:48:31.992Z,25.62
2017-07-22T11:49:45.577Z,25.59
2017-07-22T11:50:59.121Z,25.55
2017-07-22T11:52:13.020Z,25.48
2017-07-22T11:53:26.920Z,25.48
2017-07-22T11:54:40.572Z,25.46
2017-07-22T11:55:54.442Z,25.37
2017-07-22T11:57:07.977Z,25.29
2017-07-22T11:58:22.673Z,25.31
2017-07-22T11:59:39.833Z,25.07
2017-07-22T12:00:53.457Z,25.07
2017-07-22T12:02:08.315Z,24.97
2017-07-22T12:03:21.930Z,24.99
2017-07-22T12:04:36.865Z,24.89
2017-07-22T12:05:51.660Z,24.77
2017-07-22T12:07:05.402Z,24.56
2017-07-22T12:08:19.318Z,24.53
2017-07-22T12:09:36.715Z,24.53
2017-07-22T12:10:55.201Z,24.48
2017-07-22T12:12:10.679Z,24.62
2017-07-22T12:13:29.509Z,24.86
2017-07-22T12:14:45.688Z,24.89
2017-07-22T12:16:02.004Z,25.01
2017-07-22T12:17:19.601Z,25.18
2017-07-22T12:18:38.965Z,25.26
2017-07-22T12:19:57.127Z,25.19
2017-07-22T12:21:13.971Z,25.21
2017-07-22T12:22:29.589Z,25.39
2017-07-22T12:23:44.044Z,25.4
2017-07-22T12:25:00.894Z,25.46
2017-07-22T12:26:15.732Z,25.41
2017-07-22T12:28:11.769Z,25.48
2017-07-22T12:29:25.744Z,25.52
2017-07-22T12:30:40.329Z,25.58
2017-07-22T12:31:54.259Z,25.49
2017-07-22T12:33:09.006Z,25.51
2017-07-22T12:34:22.764Z,25.61
2017-07-22T12:35:37.718Z,25.98
2017-07-22T12:36:52.020Z,26.33
2017-07-22T12:38:05.796Z,26.55
2017-07-22T12:39:19.780Z,26.7
2017-07-22T12:40:33.811Z,26.92
2017-07-22T12:41:48.260Z,27.2
2017-07-22T12:43:02.190Z,27.11
2017-07-22T12:44:15.922Z,26.93
2017-07-22T12:45:30.404Z,26.66
2017-07-22T12:46:44.565Z,26.34
2017-07-22T12:47:58.135Z,26.18
2017-07-22T12:49:11.870Z,26.27
2017-07-22T12:50:25.392Z,26.37
2017-07-22T12:51:39.239Z,26.55
2017-07-22T12:52:53.492Z,26.6
2017-07-22T12:54:07.185Z,26.49
2017-07-22T12:55:20.740Z,26.31
2017-07-22T12:56:34.338Z,26.29
2017-07-22T12:57:48.201Z,26.23
2017-07-22T12:59:01.894Z,26.22
2017-07-22T13:00:15.519Z,26.23
2017-07-22T13:01:29.738Z,26.19
2017-07-22T13:02:43.351Z,26.39
2017-07-22T13:03:57.259Z,26.46
2017-07-22T13:05:10.917Z,26.51
2017-07-22T13:06:24.794Z,26.56
2017-07-22T13:07:38.341Z,26.59
2017-07-22T13:08:52.483Z,26.74
2017-07-22T13:10:07.066Z,26.68
2017-07-22T13:11:20.940Z,26.66
2017-07-22T13:12:34.532Z,26.74
2017-07-22T13:13:48.138Z,26.83
2017-07-22T13:15:01.906Z,26.88
2017-07-22T13:16:16.174Z,26.82
2017-07-22T13:17:29.738Z,26.85
2017-07-22T13:18:43.625Z,27.08
2017-07-22T13:19:57.309Z,27.08
2017-07-22T13:21:10.842Z,27.25
2017-07-22T13:22:24.701Z,27.23
2017-07-22T13:23:38.320Z,27.38
2017-07-22T13:24:51.891Z,27.34
2017-07-22T13:26:05.714Z,27.45
2017-07-22T13:27:19.633Z,27.33
2017-07-22T13:28:33.443Z,27.29
2017-07-22T13:29:46.983Z,27.26
2017-07-22T13:31:00.981Z,27.33
2017-07-22T13:32:16.649Z,27.28
2017-07-22T13:33:32.137Z,27.43
2017-07-22T13:34:47.616Z,27.58
2017-07-22T13:36:02.109Z,27.57
2017-07-22T13:37:15.984Z,27.76
2017-07-22T13:38:29.511Z,27.73
2017-07-22T13:39:43.261Z,27.53
2017-07-22T13:40:57.524Z,27.38
2017-07-22T13:42:11.128Z,27.35
2017-07-22T13:43:25.300Z,27.19
2017-07-22T13:44:38.842Z,26.83
2017-07-22T13:45:52.358Z,26.63
2017-07-22T13:47:06.254Z,26.45
2017-07-22T13:48:20.111Z,26.34
2017-07-22T13:49:33.659Z,26.34
2017-07-22T13:50:47.479Z,26.19
2017-07-22T13:52:01.377Z,26.13
2017-07-22T13:53:15.320Z,26.08
2017-07-22T13:54:28.850Z,25.93
2017-07-22T13:55:42.407Z,25.86
2017-07-22T13:56:56.080Z,25.78
2017-07-22T13:58:09.612Z,25.59
2017-07-22T13:59:24.071Z,25.56
2017-07-22T14:00:37.631Z,25.58
2017-07-22T14:01:51.505Z,25.55
2017-07-22T14:03:05.240Z,25.41
2017-07-22T14:04:18.764Z,25.4
2017-07-22T14:05:33.319Z,25.44
2017-07-22T14:06:47.170Z,25.37
2017-07-22T14:08:01.070Z,25.52
2017-07-22T14:09:14.633Z,25.54
2017-07-22T14:10:28.485Z,25.52
2017-07-22T14:11:42.307Z,25.43
2017-07-22T14:12:55.890Z,25.43
2017-07-22T14:14:09.555Z,25.46
2017-07-22T14:15:23.197Z,25.4
2017-07-22T14:16:37.061Z,25.36
2017-07-22T14:17:50.921Z,25.39
2017-07-22T14:19:04.520Z,25.49
2017-07-22T14:20:18.564Z,25.41
2017-07-22T14:21:32.103Z,25.41
2017-07-22T14:22:45.650Z,25.51
2017-07-22T14:23:59.523Z,25.61
2017-07-22T14:25:13.270Z,25.62
2017-07-22T14:26:26.951Z,25.71
2017-07-22T14:27:40.514Z,25.74
2017-07-22T14:28:54.427Z,25.91
2017-07-22T14:30:08.472Z,25.95
2017-07-22T14:31:22.789Z,26.11
2017-07-22T14:32:36.915Z,26.29
2017-07-22T14:33:50.761Z,26.49
2017-07-22T14:35:04.988Z,26.64
2017-07-22T14:36:18.841Z,26.7
2017-07-22T14:37:32.378Z,26.76
2017-07-22T14:38:45.923Z,26.79
2017-07-22T14:39:59.636Z,26.74
2017-07-22T14:41:13.508Z,26.68
2017-07-22T14:42:27.677Z,26.6
2017-07-22T14:43:41.900Z,26.63
2017-07-22T14:44:55.440Z,26.52
2017-07-22T14:46:09.112Z,26.49
2017-07-22T14:47:22.731Z,26.51
2017-07-22T14:48:36.569Z,26.36
2017-07-22T14:49:50.501Z,26.16
2017-07-22T14:51:04.137Z,26.07
2017-07-22T14:52:18.087Z,26.16
2017-07-22T14:53:31.962Z,26.19
2017-07-22T14:54:46.033Z,26.29
2017-07-22T14:55:59.608Z,26.23
2017-07-22T14:57:13.197Z,26.18
2017-07-22T14:58:26.796Z,26.06
2017-07-22T14:59:40.471Z,26.08
2017-07-22T15:00:54.346Z,26.15
2017-07-22T15:02:08.003Z,26.11
2017-07-22T15:03:23.802Z,26.11
2017-07-22T15:04:39.002Z,26.22
2017-07-22T15:05:52.867Z,26.33
2017-07-22T15:07:06.732Z,26.46
2017-07-22T15:08:20.277Z,26.63
2017-07-22T15:09:33.805Z,26.68
2017-07-22T15:10:47.356Z,26.85
2017-07-22T15:12:01.262Z,26.85
2017-07-22T15:13:15.301Z,26.86
2017-07-22T15:14:28.915Z,26.68
2017-07-22T15:15:42.556Z,26.48
2017-07-22T15:16:56.980Z,26.37
2017-07-22T15:18:10.966Z,26.44
2017-07-22T15:19:24.891Z,26.33
2017-07-22T15:20:39.167Z,26.29
2017-07-22T15:21:52.698Z,26.37
2017-07-22T15:23:06.821Z,26.42
2017-07-22T15:24:20.580Z,26.31
2017-07-22T15:25:34.857Z,26.23
2017-07-22T15:26:48.914Z,26.27
2017-07-22T15:28:03.351Z,26.24
2017-07-22T15:29:18.342Z,26.41
2017-07-22T15:30:36.104Z,26.31
2017-07-22T15:31:50.734Z,26.46
2017-07-22T15:33:04.829Z,26.63
2017-07-22T15:34:18.500Z,26.85
2017-07-22T15:35:32.225Z,26.97
2017-07-22T15:36:52.437Z,27.05
2017-07-22T15:38:07.843Z,27.07
2017-07-22T15:39:21.845Z,27.01
2017-07-22T15:40:36.423Z,26.97
2017-07-22T15:41:50.292Z,26.88
2017-07-22T15:43:04.321Z,26.74
2017-07-22T15:44:18.735Z,26.71
2017-07-22T15:45:33.225Z,26.64
2017-07-22T15:46:46.801Z,26.67
2017-07-22T15:48:03.799Z,26.7
2017-07-22T15:49:25.087Z,26.66
2017-07-22T15:50:39.451Z,26.88
2017-07-22T15:51:53.819Z,26.86
2017-07-22T15:53:08.161Z,26.82
2017-07-22T15:54:22.159Z,26.81
2017-07-22T15:55:35.808Z,26.86
2017-07-22T15:56:49.693Z,26.79
2017-07-22T15:58:03.291Z,26.83
2017-07-22T15:59:17.452Z,26.83